Time;durP1;ratioP1;P1;durP2;ratioP2;P2;SDS_P1;SDS_P2;PMS_P1;PMS_P2;Temp;Humidity;BMP_temperature;BMP_pressure;BME280_temperature;BME280_humidity;BME280_pressure;Samples;Min_cycle;Max_cycle;Signal;HPM_P1;HPM_P2
2021/08/01 00:02:19;;;;;;;6.60;4.47;;;;;;;;;;5019479;28;20087;-69
2021/08/01 00:04:44;;;;;;;4.30;3.22;;;;;;;;;;5017551;28;20276;-70
2021/08/01 00:07:10;;;;;;;6.75;3.70;;;;;;;;;;5009912;28;20041;-69
2021/08/01 00:09:35;;;;;;;6.00;3.77;;;;;;;;;;5013542;28;20025;-69
2021/08/01 00:12:00;;;;;;;9.37;3.87;;;;;;;;;;5011128;28;20859;-68
2021/08/01 00:14:25;;;;;;;6.65;3.60;;;;;;;;;;5013457;28;20300;-68
2021/08/01 00:16:50;;;;;;;8.18;4.15;;;;;;;;;;5020896;28;20072;-69
2021/08/01 00:19:16;;;;;;;7.35;3.30;;;;;;;;;;5010815;28;20117;-68
2021/08/01 00:21:41;;;;;;;9.05;3.90;;;;;;;;;;5018426;28;20021;-70
2021/08/01 00:24:06;;;;;;;5.97;3.70;;;;;;;;;;5026240;28;20481;-69
2021/08/01 00:26:31;;;;;;;6.33;3.93;;;;;;;;;;5016176;28;20049;-70
2021/08/01 00:28:56;;;;;;;7.00;3.93;;;;;;;;;;5011214;28;20671;-69
2021/08/01 00:31:22;;;;;;;7.70;3.78;;;;;;;;;;5014798;28;20269;-69
2021/08/01 00:33:47;;;;;;;5.32;3.58;;;;;;;;;;5012061;28;20037;-69
2021/08/01 00:36:12;;;;;;;7.50;4.15;;;;;;;;;;5012590;28;20576;-69
2021/08/01 00:38:37;;;;;;;9.00;4.23;;;;;;;;;;5017246;28;20285;-68
2021/08/01 00:41:03;;;;;;;6.80;4.40;;;;;;;;;;5014389;28;20462;-69
2021/08/01 00:43:28;;;;;;;7.25;4.72;;;;;;;;;;5016463;28;20710;-69
2021/08/01 00:45:53;;;;;;;7.43;4.95;;;;;;;;;;5011588;28;20488;-69
2021/08/01 00:48:19;;;;;;;9.27;5.13;;;;;;;;;;5009359;28;20021;-68
2021/08/01 00:50:44;;;;;;;8.98;6.13;;;;;;;;;;5007146;28;20066;-69
2021/08/01 00:53:10;;;;;;;10.75;6.57;;;;;;;;;;5009028;28;20030;-70
2021/08/01 00:55:35;;;;;;;12.63;6.55;;;;;;;;;;5020160;28;20034;-69
2021/08/01 00:58:00;;;;;;;11.27;6.95;;;;;;;;;;5018671;28;20404;-69
2021/08/01 01:00:41;;;;;;;10.13;5.80;;;;;;;;;;5014043;28;20026;-69
2021/08/01 01:03:20;;;;;;;11.70;6.80;;;;;;;;;;5011571;28;20608;-69
2021/08/01 01:05:55;;;;;;;9.60;6.63;;;;;;;;;;5008627;28;20532;-69
2021/08/01 01:08:39;;;;;;;10.82;6.90;;;;;;;;;;5010700;28;20336;-70
2021/08/01 01:11:05;;;;;;;10.82;6.80;;;;;;;;;;5010515;28;20037;-69
2021/08/01 01:13:33;;;;;;;11.38;7.15;;;;;;;;;;5016015;28;20037;-69
2021/08/01 01:16:00;;;;;;;11.27;6.70;;;;;;;;;;5007568;28;20076;-70
2021/08/01 01:18:28;;;;;;;13.68;6.43;;;;;;;;;;5010668;28;20492;-69
2021/08/01 01:21:09;;;;;;;10.23;5.63;;;;;;;;;;5012556;28;20370;-70
2021/08/01 01:23:49;;;;;;;11.35;5.93;;;;;;;;;;5012989;28;20028;-69
2021/08/01 01:26:31;;;;;;;9.93;5.55;;;;;;;;;;5013913;28;20021;-69
2021/08/01 01:28:56;;;;;;;11.50;5.93;;;;;;;;;;5000974;28;20030;-69
2021/08/01 01:31:36;;;;;;;10.02;5.47;;;;;;;;;;5009751;28;20424;-70
2021/08/01 01:34:13;;;;;;;8.18;5.38;;;;;;;;;;5015799;28;20303;-69
2021/08/01 01:36:42;;;;;;;12.68;5.63;;;;;;;;;;5009537;28;20014;-68
2021/08/01 01:39:08;;;;;;;9.45;5.57;;;;;;;;;;5013655;28;20468;-69
2021/08/01 01:41:34;;;;;;;12.50;6.78;;;;;;;;;;5006595;28;20037;-68
2021/08/01 01:44:00;;;;;;;9.50;5.80;;;;;;;;;;5003413;28;20054;-69
2021/08/01 01:46:26;;;;;;;9.55;6.53;;;;;;;;;;5010595;28;20041;-68
2021/08/01 01:48:52;;;;;;;11.85;6.15;;;;;;;;;;5010582;28;20489;-68
2021/08/01 01:51:18;;;;;;;11.65;6.57;;;;;;;;;;5007248;28;20129;-70
2021/08/01 01:53:43;;;;;;;9.07;6.18;;;;;;;;;;5012574;28;20754;-69
2021/08/01 01:56:09;;;;;;;7.90;5.40;;;;;;;;;;5013801;28;20033;-69
2021/08/01 01:58:35;;;;;;;13.65;6.05;;;;;;;;;;5014952;28;20118;-69
2021/08/01 02:01:00;;;;;;;10.23;6.45;;;;;;;;;;5006959;28;20095;-68
2021/08/01 02:03:25;;;;;;;11.23;6.28;;;;;;;;;;5011832;28;20112;-69
2021/08/01 02:05:50;;;;;;;12.82;5.78;;;;;;;;;;5014308;28;20096;-69
2021/08/01 02:08:16;;;;;;;11.52;6.70;;;;;;;;;;5021686;28;20504;-69
2021/08/01 02:10:48;;;;;;;14.03;7.40;;;;;;;;;;5016674;28;20167;-70
2021/08/01 02:13:17;;;;;;;12.70;6.85;;;;;;;;;;5008483;28;20344;-68
2021/08/01 02:15:45;;;;;;;12.73;6.28;;;;;;;;;;5006949;28;20111;-68
2021/08/01 02:18:16;;;;;;;11.18;7.03;;;;;;;;;;5008724;28;20030;-69
2021/08/01 02:20:42;;;;;;;10.18;6.97;;;;;;;;;;5008196;28;20075;-69
2021/08/01 02:23:09;;;;;;;13.60;7.05;;;;;;;;;;5016994;28;20033;-68
2021/08/01 02:25:35;;;;;;;11.82;6.93;;;;;;;;;;5008589;28;20056;-69
2021/08/01 02:28:00;;;;;;;9.93;7.05;;;;;;;;;;5012839;28;20036;-69
2021/08/01 02:30:27;;;;;;;9.88;7.05;;;;;;;;;;5022095;28;20014;-69
2021/08/01 02:32:52;;;;;;;11.02;6.57;;;;;;;;;;5019091;28;20034;-69
2021/08/01 02:35:18;;;;;;;11.70;7.18;;;;;;;;;;5019806;28;20048;-68
2021/08/01 02:37:44;;;;;;;10.60;7.13;;;;;;;;;;5015694;28;20057;-70
2021/08/01 02:40:09;;;;;;;11.40;6.40;;;;;;;;;;5023397;28;20022;-70
2021/08/01 02:42:34;;;;;;;14.45;6.95;;;;;;;;;;5011323;28;20026;-69
2021/08/01 02:45:01;;;;;;;15.13;7.63;;;;;;;;;;5009350;28;20195;-70
2021/08/01 02:47:28;;;;;;;13.82;6.93;;;;;;;;;;5009962;28;20473;-69
2021/08/01 02:49:54;;;;;;;12.05;7.60;;;;;;;;;;5012394;28;20582;-69
2021/08/01 02:52:20;;;;;;;11.57;6.97;;;;;;;;;;5012801;28;20053;-70
2021/08/01 02:54:47;;;;;;;10.25;7.28;;;;;;;;;;5014179;28;20033;-69
2021/08/01 02:57:13;;;;;;;15.50;7.60;;;;;;;;;;5014613;28;20013;-70
2021/08/01 02:59:38;;;;;;;14.55;8.38;;;;;;;;;;5019441;28;20484;-69
2021/08/01 03:02:06;;;;;;;16.05;8.13;;;;;;;;;;5015985;28;20495;-69
2021/08/01 03:04:38;;;;;;;11.48;7.32;;;;;;;;;;5013375;28;20097;-68
2021/08/01 03:07:04;;;;;;;14.13;7.60;;;;;;;;;;5013792;28;20022;-70
2021/08/01 03:09:30;;;;;;;11.23;8.55;;;;;;;;;;5019225;28;20026;-68
2021/08/01 03:12:06;;;;;;;14.60;7.95;;;;;;;;;;5013052;28;20071;-69
2021/08/01 03:14:31;;;;;;;13.75;7.88;;;;;;;;;;5024991;28;20037;-70
2021/08/01 03:16:56;;;;;;;13.73;7.95;;;;;;;;;;5010591;28;20427;-69
2021/08/01 03:19:21;;;;;;;10.45;7.75;;;;;;;;;;5011343;28;20108;-70
2021/08/01 03:21:46;;;;;;;13.47;8.07;;;;;;;;;;5018972;28;20373;-70
2021/08/01 03:24:11;;;;;;;14.88;7.80;;;;;;;;;;5017630;28;20309;-69
2021/08/01 03:26:37;;;;;;;13.00;7.57;;;;;;;;;;5022389;28;20032;-69
2021/08/01 03:29:02;;;;;;;13.07;8.40;;;;;;;;;;5013739;28;20071;-69
2021/08/01 03:31:27;;;;;;;14.38;8.20;;;;;;;;;;5010072;28;20271;-69
2021/08/01 03:33:52;;;;;;;10.33;7.00;;;;;;;;;;5020469;28;20097;-70
2021/08/01 03:36:17;;;;;;;14.02;5.03;;;;;;;;;;5011853;28;20287;-70
2021/08/01 03:38:42;;;;;;;10.15;5.60;;;;;;;;;;5014602;28;20068;-70
2021/08/01 03:41:08;;;;;;;8.63;6.40;;;;;;;;;;5016073;28;20022;-70
2021/08/01 03:43:34;;;;;;;10.02;7.03;;;;;;;;;;5009886;28;20084;-70
2021/08/01 03:45:59;;;;;;;11.02;7.00;;;;;;;;;;5016230;28;20022;-70
2021/08/01 03:48:24;;;;;;;11.10;7.30;;;;;;;;;;5012448;28;20084;-71
2021/08/01 03:50:49;;;;;;;12.18;7.88;;;;;;;;;;5013850;28;20711;-69
2021/08/01 03:53:14;;;;;;;8.13;6.38;;;;;;;;;;5016773;28;20049;-70
2021/08/01 03:55:39;;;;;;;9.23;5.87;;;;;;;;;;5011322;28;20630;-71
2021/08/01 03:58:05;;;;;;;5.45;3.83;;;;;;;;;;5011664;28;20334;-69
2021/08/01 04:00:30;;;;;;;5.85;4.07;;;;;;;;;;5014837;28;20669;-69
2021/08/01 04:02:55;;;;;;;4.28;3.25;;;;;;;;;;5008453;28;20065;-69
2021/08/01 04:05:20;;;;;;;5.00;3.53;;;;;;;;;;5009256;28;20409;-69
2021/08/01 04:07:45;;;;;;;5.25;2.95;;;;;;;;;;5023289;28;20372;-70
2021/08/01 04:10:10;;;;;;;5.30;3.28;;;;;;;;;;5017959;28;20506;-70
2021/08/01 04:12:37;;;;;;;4.68;2.90;;;;;;;;;;5008538;28;20281;-71
2021/08/01 04:15:02;;;;;;;4.97;3.70;;;;;;;;;;5027857;28;20117;-70
2021/08/01 04:17:29;;;;;;;5.80;4.13;;;;;;;;;;5020890;28;20026;-70
2021/08/01 04:19:54;;;;;;;8.77;4.45;;;;;;;;;;5009505;28;20478;-71
2021/08/01 04:22:19;;;;;;;7.43;4.13;;;;;;;;;;5007848;28;20072;-71
2021/08/01 04:24:45;;;;;;;5.35;3.88;;;;;;;;;;5009428;28;20149;-71
2021/08/01 04:27:10;;;;;;;5.90;3.75;;;;;;;;;;5011931;28;20048;-71
2021/08/01 04:29:35;;;;;;;5.05;3.50;;;;;;;;;;5011393;28;20021;-70
2021/08/01 04:32:01;;;;;;;8.32;4.28;;;;;;;;;;5011802;28;20113;-72
2021/08/01 04:34:26;;;;;;;6.90;4.80;;;;;;;;;;5018459;28;20103;-70
2021/08/01 04:36:51;;;;;;;6.75;5.13;;;;;;;;;;5016576;28;20072;-71
2021/08/01 04:39:16;;;;;;;5.68;4.70;;;;;;;;;;5006566;28;20026;-70
2021/08/01 04:41:42;;;;;;;7.30;4.97;;;;;;;;;;5008036;28;20030;-70
2021/08/01 04:44:07;;;;;;;8.32;5.13;;;;;;;;;;5018515;28;20045;-70
2021/08/01 04:46:32;;;;;;;6.28;4.47;;;;;;;;;;5015056;28;20057;-70
2021/08/01 04:48:58;;;;;;;6.53;4.60;;;;;;;;;;5015915;28;20068;-70
2021/08/01 04:51:23;;;;;;;7.38;4.65;;;;;;;;;;5009020;28;20129;-69
2021/08/01 04:53:48;;;;;;;5.63;4.35;;;;;;;;;;5013812;28;20063;-70
2021/08/01 04:56:13;;;;;;;6.22;3.95;;;;;;;;;;5012359;28;20553;-71
2021/08/01 04:58:38;;;;;;;6.30;4.30;;;;;;;;;;5014669;28;20493;-71
2021/08/01 05:01:09;;;;;;;4.90;3.20;;;;;;;;;;5008286;28;20033;-71
2021/08/01 05:03:34;;;;;;;4.32;3.20;;;;;;;;;;5013644;28;20335;-70
2021/08/01 05:05:59;;;;;;;5.47;2.70;;;;;;;;;;5018031;28;20057;-70
2021/08/01 05:08:24;;;;;;;4.40;3.25;;;;;;;;;;5008800;28;20329;-71
2021/08/01 05:10:49;;;;;;;5.37;3.40;;;;;;;;;;5014239;28;20053;-71
2021/08/01 05:13:14;;;;;;;4.18;2.92;;;;;;;;;;5016011;28;20305;-70
2021/08/01 05:15:40;;;;;;;5.40;2.60;;;;;;;;;;5009523;28;20076;-70
2021/08/01 05:18:05;;;;;;;5.93;3.00;;;;;;;;;;5011751;28;20457;-71
2021/08/01 05:20:30;;;;;;;5.03;3.05;;;;;;;;;;5012185;28;20108;-70
2021/08/01 05:22:55;;;;;;;4.20;2.80;;;;;;;;;;5010186;28;20076;-70
2021/08/01 05:25:21;;;;;;;5.18;3.03;;;;;;;;;;5008826;28;20133;-69
2021/08/01 05:27:46;;;;;;;3.78;2.60;;;;;;;;;;5020557;28;20025;-70
2021/08/01 05:30:11;;;;;;;3.45;2.50;;;;;;;;;;5014757;28;20018;-70
2021/08/01 05:32:36;;;;;;;4.63;3.47;;;;;;;;;;5018880;28;20273;-70
2021/08/01 05:35:02;;;;;;;4.82;2.70;;;;;;;;;;5008725;28;20088;-70
2021/08/01 05:37:27;;;;;;;5.28;3.30;;;;;;;;;;5012944;28;20018;-70
2021/08/01 05:39:52;;;;;;;6.22;3.47;;;;;;;;;;5015048;28;20077;-70
2021/08/01 05:42:18;;;;;;;4.93;2.90;;;;;;;;;;5010406;28;20482;-70
2021/08/01 05:44:43;;;;;;;4.60;3.15;;;;;;;;;;5009915;28;20087;-71
2021/08/01 05:47:09;;;;;;;6.35;3.05;;;;;;;;;;5008933;28;20029;-70
2021/08/01 05:49:34;;;;;;;5.22;3.20;;;;;;;;;;5022138;28;20033;-70
2021/08/01 05:51:59;;;;;;;6.30;3.67;;;;;;;;;;5012636;28;20464;-70
2021/08/01 05:54:25;;;;;;;5.43;3.47;;;;;;;;;;5011440;28;20045;-70
2021/08/01 05:56:50;;;;;;;5.90;3.30;;;;;;;;;;5010348;28;20022;-71
2021/08/01 05:59:15;;;;;;;5.70;3.53;;;;;;;;;;5013902;28;20164;-71
2021/08/01 06:01:40;;;;;;;4.73;3.07;;;;;;;;;;5010414;28;20409;-70
2021/08/01 06:04:05;;;;;;;4.40;3.27;;;;;;;;;;5012222;28;20273;-69
2021/08/01 06:06:30;;;;;;;7.10;3.40;;;;;;;;;;5014940;28;20273;-70
2021/08/01 06:08:56;;;;;;;5.80;3.60;;;;;;;;;;5015537;28;20083;-70
2021/08/01 06:11:22;;;;;;;6.93;4.07;;;;;;;;;;5014634;28;20357;-69
2021/08/01 06:13:47;;;;;;;6.55;3.80;;;;;;;;;;5012476;28;20208;-70
2021/08/01 06:16:13;;;;;;;5.10;3.80;;;;;;;;;;5014696;28;20552;-71
2021/08/01 06:18:39;;;;;;;5.43;3.30;;;;;;;;;;5014528;28;20034;-70
2021/08/01 06:21:05;;;;;;;5.40;3.13;;;;;;;;;;5019059;28;20018;-71
2021/08/01 06:23:30;;;;;;;5.57;3.20;;;;;;;;;;5008823;28;20496;-69
2021/08/01 06:25:56;;;;;;;6.63;3.00;;;;;;;;;;5022851;28;20112;-69
2021/08/01 06:28:21;;;;;;;5.60;3.80;;;;;;;;;;5016605;28;20033;-69
2021/08/01 06:30:46;;;;;;;4.37;3.10;;;;;;;;;;5016048;28;20046;-70
2021/08/01 06:33:11;;;;;;;4.78;3.42;;;;;;;;;;5020464;28;20323;-69
2021/08/01 06:35:36;;;;;;;4.73;3.07;;;;;;;;;;5011970;28;20033;-68
2021/08/01 06:38:02;;;;;;;6.13;3.45;;;;;;;;;;5019664;28;20724;-69
2021/08/01 06:40:27;;;;;;;5.25;3.25;;;;;;;;;;5011105;28;20026;-69
2021/08/01 06:42:52;;;;;;;6.05;3.55;;;;;;;;;;5013639;28;20507;-69
2021/08/01 06:45:17;;;;;;;4.72;3.60;;;;;;;;;;5014783;28;20029;-69
2021/08/01 06:47:43;;;;;;;5.50;3.72;;;;;;;;;;5015489;28;20440;-69
2021/08/01 06:50:08;;;;;;;5.63;3.27;;;;;;;;;;5012867;28;20095;-69
2021/08/01 06:52:33;;;;;;;5.28;3.60;;;;;;;;;;5011408;28;20681;-69
2021/08/01 06:54:58;;;;;;;5.65;3.63;;;;;;;;;;5012277;28;20061;-70
2021/08/01 06:57:23;;;;;;;5.20;2.73;;;;;;;;;;5012361;28;20385;-69
2021/08/01 06:59:48;;;;;;;4.33;3.10;;;;;;;;;;5015688;28;20343;-70
2021/08/01 07:02:14;;;;;;;7.53;3.67;;;;;;;;;;5011441;28;20273;-68
2021/08/01 07:04:39;;;;;;;3.70;2.10;;;;;;;;;;5017915;28;20277;-69
2021/08/01 07:07:04;;;;;;;3.80;2.40;;;;;;;;;;5014715;28;20366;-69
2021/08/01 07:09:29;;;;;;;4.78;3.25;;;;;;;;;;5015684;28;20272;-71
2021/08/01 07:11:54;;;;;;;3.53;2.65;;;;;;;;;;5014858;28;20029;-68
2021/08/01 07:14:20;;;;;;;3.35;2.40;;;;;;;;;;5020338;28;20037;-68
2021/08/01 07:16:45;;;;;;;4.47;2.75;;;;;;;;;;5013267;28;20022;-67
2021/08/01 07:19:11;;;;;;;5.07;2.72;;;;;;;;;;5012441;28;20477;-68
2021/08/01 07:21:36;;;;;;;4.88;3.33;;;;;;;;;;5010997;28;20041;-68
2021/08/01 07:24:01;;;;;;;4.28;3.05;;;;;;;;;;5009709;28;20029;-68
2021/08/01 07:26:26;;;;;;;3.80;2.73;;;;;;;;;;5016075;28;20048;-68
2021/08/01 07:28:51;;;;;;;5.70;2.50;;;;;;;;;;5011097;28;20794;-68
2021/08/01 07:31:17;;;;;;;5.30;2.95;;;;;;;;;;5011052;28;20265;-68
2021/08/01 07:33:42;;;;;;;3.97;2.90;;;;;;;;;;5024733;28;20496;-68
2021/08/01 07:36:07;;;;;;;4.05;2.60;;;;;;;;;;5015620;28;20028;-67
2021/08/01 07:38:32;;;;;;;5.15;2.72;;;;;;;;;;5024823;28;20187;-67
2021/08/01 07:40:57;;;;;;;5.72;2.50;;;;;;;;;;5023862;28;20419;-68
2021/08/01 07:43:22;;;;;;;2.80;2.15;;;;;;;;;;5007371;28;20096;-68
2021/08/01 07:45:48;;;;;;;3.70;2.40;;;;;;;;;;5023794;28;20022;-65
2021/08/01 07:48:13;;;;;;;3.38;2.17;;;;;;;;;;5027255;28;20305;-64
2021/08/01 07:50:38;;;;;;;5.55;2.65;;;;;;;;;;5010846;28;20034;-65
2021/08/01 07:53:03;;;;;;;3.35;2.30;;;;;;;;;;5022615;28;20129;-65
2021/08/01 07:55:28;;;;;;;4.00;2.70;;;;;;;;;;5014141;28;20022;-66
2021/08/01 07:57:55;;;;;;;4.25;2.28;;;;;;;;;;5010810;28;20026;-65
2021/08/01 08:00:20;;;;;;;4.45;2.20;;;;;;;;;;5017592;28;20512;-65
2021/08/01 08:02:45;;;;;;;4.77;2.43;;;;;;;;;;5019829;28;20032;-65
2021/08/01 08:05:11;;;;;;;4.05;2.33;;;;;;;;;;5010363;28;20687;-65
2021/08/01 08:07:36;;;;;;;3.08;2.25;;;;;;;;;;5015227;28;20034;-65
2021/08/01 08:10:02;;;;;;;2.42;1.80;;;;;;;;;;5020443;28;20378;-65
2021/08/01 08:12:27;;;;;;;4.88;2.40;;;;;;;;;;5014120;28;20113;-66
2021/08/01 08:14:52;;;;;;;3.53;2.30;;;;;;;;;;5013271;28;20041;-65
2021/08/01 08:17:18;;;;;;;3.53;2.37;;;;;;;;;;5011975;28;20022;-65
2021/08/01 08:19:43;;;;;;;4.88;2.60;;;;;;;;;;5016459;28;20840;-65
2021/08/01 08:22:09;;;;;;;3.50;2.60;;;;;;;;;;5009247;28;20045;-65
2021/08/01 08:24:34;;;;;;;3.55;2.25;;;;;;;;;;5017371;28;20428;-65
2021/08/01 08:27:00;;;;;;;4.22;2.10;;;;;;;;;;5012090;28;20062;-65
2021/08/01 08:29:25;;;;;;;3.13;2.05;;;;;;;;;;5011300;28;20476;-66
2021/08/01 08:31:51;;;;;;;3.78;2.25;;;;;;;;;;5024249;28;20022;-65
2021/08/01 08:34:17;;;;;;;5.65;2.30;;;;;;;;;;5010391;28;20061;-66
2021/08/01 08:36:44;;;;;;;4.13;1.92;;;;;;;;;;5012411;28;20024;-65
2021/08/01 08:39:09;;;;;;;4.07;2.15;;;;;;;;;;5019228;28;20040;-65
2021/08/01 08:41:34;;;;;;;3.35;2.03;;;;;;;;;;5010881;28;20377;-65
2021/08/01 08:44:00;;;;;;;3.55;2.03;;;;;;;;;;5009221;28;20305;-65
2021/08/01 08:46:26;;;;;;;3.40;2.10;;;;;;;;;;5013003;28;20465;-67
2021/08/01 08:48:51;;;;;;;3.42;2.30;;;;;;;;;;5022678;28;20362;-66
2021/08/01 08:51:17;;;;;;;3.40;2.25;;;;;;;;;;5022899;28;20031;-65
2021/08/01 08:53:48;;;;;;;3.20;1.98;;;;;;;;;;5016323;28;20034;-66
2021/08/01 08:56:14;;;;;;;3.95;2.60;;;;;;;;;;5014806;28;20432;-67
2021/08/01 08:58:39;;;;;;;3.55;2.28;;;;;;;;;;5012835;28;20082;-66
2021/08/01 09:01:05;;;;;;;3.40;2.22;;;;;;;;;;5007675;28;20496;-68
2021/08/01 09:03:30;;;;;;;5.13;2.08;;;;;;;;;;5017495;28;20048;-65
2021/08/01 09:05:59;;;;;;;3.63;2.13;;;;;;;;;;5011820;28;20044;-64
2021/08/01 09:08:25;;;;;;;6.82;2.00;;;;;;;;;;5015305;28;20022;-64
2021/08/01 09:10:51;;;;;;;4.63;2.40;;;;;;;;;;5017845;28;20049;-65
2021/08/01 09:13:36;;;;;;;3.83;2.10;;;;;;;;;;5013191;28;20026;-65
2021/08/01 09:16:01;;;;;;;4.22;2.10;;;;;;;;;;5011648;28;20096;-65
2021/08/01 09:18:31;;;;;;;4.03;2.10;;;;;;;;;;5018674;28;20486;-65
2021/08/01 09:20:57;;;;;;;3.33;1.98;;;;;;;;;;5010129;28;20783;-65
2021/08/01 09:23:22;;;;;;;3.67;2.03;;;;;;;;;;5009284;28;20087;-64
2021/08/01 09:25:55;;;;;;;3.40;2.10;;;;;;;;;;5008929;28;20280;-64
2021/08/01 09:28:23;;;;;;;4.53;2.05;;;;;;;;;;5012456;28;20293;-65
2021/08/01 09:30:59;;;;;;;4.18;1.90;;;;;;;;;;5013681;28;20030;-65
2021/08/01 09:33:35;;;;;;;2.83;1.80;;;;;;;;;;5020482;28;20038;-63
2021/08/01 09:36:08;;;;;;;2.83;1.90;;;;;;;;;;5009004;28;20542;-64
2021/08/01 09:38:42;;;;;;;3.58;2.30;;;;;;;;;;5020991;28;20072;-63
2021/08/01 09:41:07;;;;;;;2.42;1.75;;;;;;;;;;5012877;28;20061;-64
2021/08/01 09:43:33;;;;;;;3.55;1.95;;;;;;;;;;5013587;28;20045;-65
2021/08/01 09:46:01;;;;;;;5.38;2.20;;;;;;;;;;5028381;28;20128;-64
2021/08/01 09:48:26;;;;;;;3.75;2.28;;;;;;;;;;5014034;28;20018;-64
2021/08/01 09:51:02;;;;;;;2.87;2.10;;;;;;;;;;5009996;28;20033;-67
2021/08/01 09:53:28;;;;;;;3.35;1.73;;;;;;;;;;5012370;28;20288;-65
2021/08/01 09:56:12;;;;;;;2.95;1.90;;;;;;;;;;5011475;28;20359;-64
2021/08/01 09:58:37;;;;;;;3.08;1.90;;;;;;;;;;5014556;28;20370;-64
2021/08/01 10:01:02;;;;;;;3.05;2.20;;;;;;;;;;5019174;28;20030;-64
2021/08/01 10:03:54;;;;;;;3.67;2.10;;;;;;;;;;5017064;28;20025;-63
2021/08/01 10:06:22;;;;;;;4.22;2.13;;;;;;;;;;5018630;28;20395;-65
2021/08/01 10:08:49;;;;;;;4.30;1.67;;;;;;;;;;5013604;28;20109;-66
2021/08/01 10:11:18;;;;;;;5.82;1.95;;;;;;;;;;5008768;28;20072;-65
2021/08/01 10:13:44;;;;;;;3.65;2.28;;;;;;;;;;5021568;28;20053;-64
2021/08/01 10:16:10;;;;;;;3.20;1.70;;;;;;;;;;5020063;28;20030;-65
2021/08/01 10:18:36;;;;;;;4.05;1.92;;;;;;;;;;5017541;28;20465;-64
2021/08/01 10:21:02;;;;;;;4.20;2.00;;;;;;;;;;5018746;28;20407;-67
2021/08/01 10:23:28;;;;;;;4.45;2.50;;;;;;;;;;5017392;28;20031;-67
2021/08/01 10:25:54;;;;;;;3.13;1.80;;;;;;;;;;5010208;28;20104;-66
2021/08/01 10:28:21;;;;;;;4.15;2.05;;;;;;;;;;5012619;28;20477;-66
2021/08/01 10:30:46;;;;;;;4.70;2.42;;;;;;;;;;5005495;28;20359;-66
2021/08/01 10:33:13;;;;;;;3.88;2.30;;;;;;;;;;5008979;28;20071;-67
2021/08/01 10:35:43;;;;;;;3.22;2.33;;;;;;;;;;5020962;28;20025;-66
2021/08/01 10:38:11;;;;;;;3.65;2.25;;;;;;;;;;5012226;28;20108;-67
2021/08/01 10:40:36;;;;;;;3.92;2.63;;;;;;;;;;5019274;28;20116;-67
2021/08/01 10:43:12;;;;;;;3.47;2.20;;;;;;;;;;5018094;28;20077;-67
2021/08/01 10:45:37;;;;;;;3.88;1.92;;;;;;;;;;5015326;28;20029;-66
2021/08/01 10:48:03;;;;;;;2.67;1.90;;;;;;;;;;5017818;28;20033;-66
2021/08/01 10:50:29;;;;;;;3.63;1.90;;;;;;;;;;5017504;28;20064;-66
2021/08/01 10:53:14;;;;;;;2.97;2.03;;;;;;;;;;5015027;28;20073;-66
2021/08/01 10:55:39;;;;;;;3.78;2.00;;;;;;;;;;5020021;28;20045;-67
2021/08/01 10:58:14;;;;;;;3.05;1.95;;;;;;;;;;5016897;28;20034;-67
2021/08/01 11:00:54;;;;;;;3.80;2.13;;;;;;;;;;5018523;28;20075;-67
2021/08/01 11:03:20;;;;;;;2.80;1.90;;;;;;;;;;5011134;28;20117;-67
2021/08/01 11:05:45;;;;;;;3.08;2.20;;;;;;;;;;5016240;28;20273;-66
2021/08/01 11:08:10;;;;;;;2.57;1.70;;;;;;;;;;5018400;28;20033;-66
2021/08/01 11:10:35;;;;;;;3.95;2.10;;;;;;;;;;5015394;28;20329;-66
2021/08/01 11:13:21;;;;;;;3.25;2.13;;;;;;;;;;5015287;28;20029;-67
2021/08/01 11:15:46;;;;;;;7.75;2.08;;;;;;;;;;5022412;28;20098;-67
2021/08/01 11:18:11;;;;;;;2.97;2.08;;;;;;;;;;5020328;28;20033;-67
2021/08/01 11:20:43;;;;;;;3.22;1.88;;;;;;;;;;5016858;28;20045;-66
2021/08/01 11:23:08;;;;;;;3.28;2.20;;;;;;;;;;5017194;28;20424;-67
2021/08/01 11:25:34;;;;;;;3.05;2.03;;;;;;;;;;5012082;28;20163;-66
2021/08/01 11:28:09;;;;;;;3.50;1.80;;;;;;;;;;5014217;28;20612;-66
2021/08/01 11:30:52;;;;;;;3.35;2.10;;;;;;;;;;5015717;28;20033;-67
2021/08/01 11:33:27;;;;;;;3.28;2.10;;;;;;;;;;5010838;28;20049;-65
2021/08/01 11:36:16;;;;;;;4.40;2.25;;;;;;;;;;5019727;28;20037;-66
2021/08/01 11:38:53;;;;;;;4.28;2.00;;;;;;;;;;5012376;28;20030;-67
2021/08/01 11:41:28;;;;;;;3.58;2.03;;;;;;;;;;5009283;28;20128;-66
2021/08/01 11:43:57;;;;;;;3.13;2.05;;;;;;;;;;5008369;28;20046;-66
2021/08/01 11:46:23;;;;;;;3.42;1.90;;;;;;;;;;5010574;28;20061;-66
2021/08/01 11:48:56;;;;;;;3.17;2.00;;;;;;;;;;5010816;28;20117;-66
2021/08/01 11:51:22;;;;;;;3.45;1.40;;;;;;;;;;5023315;28;20084;-66
2021/08/01 11:53:49;;;;;;;3.08;1.83;;;;;;;;;;5029486;28;20029;-66
2021/08/01 11:56:14;;;;;;;4.18;2.72;;;;;;;;;;5016988;28;20503;-66
2021/08/01 11:58:39;;;;;;;3.23;2.00;;;;;;;;;;5025623;28;20061;-66
2021/08/01 12:01:05;;;;;;;3.90;1.90;;;;;;;;;;5011002;28;20606;-67
2021/08/01 12:03:31;;;;;;;3.08;1.70;;;;;;;;;;5015145;28;20111;-67
2021/08/01 12:05:56;;;;;;;3.55;1.50;;;;;;;;;;5026513;28;20033;-65
2021/08/01 12:08:32;;;;;;;2.45;1.52;;;;;;;;;;5013069;28;20021;-66
2021/08/01 12:11:04;;;;;;;3.28;1.80;;;;;;;;;;5012463;28;20014;-67
2021/08/01 12:13:29;;;;;;;5.28;2.28;;;;;;;;;;5015902;28;20389;-66
2021/08/01 12:15:54;;;;;;;2.53;1.70;;;;;;;;;;5019080;28;20022;-67
2021/08/01 12:18:28;;;;;;;3.03;1.47;;;;;;;;;;5027695;28;20526;-67
2021/08/01 12:20:54;;;;;;;2.35;1.52;;;;;;;;;;5028068;28;20256;-67
2021/08/01 12:23:35;;;;;;;3.47;1.90;;;;;;;;;;5022447;28;20072;-66
2021/08/01 12:26:00;;;;;;;2.58;1.70;;;;;;;;;;5018605;28;20032;-67
2021/08/01 12:28:37;;;;;;;3.42;1.65;;;;;;;;;;5016200;28;20396;-66
2021/08/01 12:31:02;;;;;;;2.70;1.67;;;;;;;;;;5028131;28;20028;-66
2021/08/01 12:33:27;;;;;;;3.17;1.70;;;;;;;;;;5019156;28;20022;-66
2021/08/01 12:35:53;;;;;;;3.07;1.70;;;;;;;;;;5019558;28;20033;-66
2021/08/01 12:38:23;;;;;;;2.60;1.60;;;;;;;;;;5029728;28;20798;-67
2021/08/01 12:40:48;;;;;;;2.65;1.90;;;;;;;;;;5025170;28;20018;-66
2021/08/01 12:43:15;;;;;;;2.90;1.80;;;;;;;;;;5015271;28;20057;-67
2021/08/01 12:45:41;;;;;;;3.03;1.70;;;;;;;;;;5016760;28;20310;-66
2021/08/01 12:48:08;;;;;;;3.05;1.83;;;;;;;;;;5012012;28;20509;-66
2021/08/01 12:50:34;;;;;;;3.15;2.00;;;;;;;;;;5017102;28;20037;-67
2021/08/01 12:52:59;;;;;;;4.05;2.00;;;;;;;;;;5010016;28;20033;-67
2021/08/01 12:55:25;;;;;;;3.08;2.05;;;;;;;;;;5011439;28;20135;-66
2021/08/01 12:58:00;;;;;;;2.65;1.60;;;;;;;;;;5010168;28;20117;-68
2021/08/01 13:00:29;;;;;;;3.67;2.00;;;;;;;;;;5016667;28;20033;-66
2021/08/01 13:02:55;;;;;;;5.30;2.25;;;;;;;;;;5017222;28;20030;-67
2021/08/01 13:05:21;;;;;;;3.92;1.90;;;;;;;;;;5010001;28;20450;-67
2021/08/01 13:07:46;;;;;;;3.80;1.70;;;;;;;;;;5026085;28;20406;-66
2021/08/01 13:10:12;;;;;;;5.82;3.75;;;;;;;;;;5024659;28;20018;-66
2021/08/01 13:12:38;;;;;;;4.40;2.22;;;;;;;;;;5009625;28;20061;-65
2021/08/01 13:15:23;;;;;;;3.63;2.10;;;;;;;;;;5014824;28;20054;-67
2021/08/01 13:17:48;;;;;;;5.97;2.33;;;;;;;;;;5022625;28;20474;-66
2021/08/01 13:20:29;;;;;;;4.88;2.42;;;;;;;;;;5009931;28;20032;-67
2021/08/01 13:22:57;;;;;;;3.88;2.15;;;;;;;;;;5010186;28;20029;-67
2021/08/01 13:25:31;;;;;;;4.45;2.58;;;;;;;;;;5017563;28;20025;-66
2021/08/01 13:27:56;;;;;;;3.97;2.35;;;;;;;;;;5016083;28;20072;-66
2021/08/01 13:30:23;;;;;;;4.57;2.83;;;;;;;;;;5022879;28;20061;-67
2021/08/01 13:32:48;;;;;;;3.85;2.92;;;;;;;;;;5016398;28;20351;-67
2021/08/01 13:35:39;;;;;;;2.97;1.85;;;;;;;;;;5017316;28;20604;-67
2021/08/01 13:38:05;;;;;;;5.20;2.53;;;;;;;;;;5013677;28;20087;-66
2021/08/01 13:40:37;;;;;;;6.35;2.42;;;;;;;;;;5009727;28;20034;-67
2021/08/01 13:43:02;;;;;;;4.28;2.45;;;;;;;;;;5009563;28;20266;-68
2021/08/01 13:45:27;;;;;;;5.03;3.08;;;;;;;;;;5011286;28;20097;-67
2021/08/01 13:47:53;;;;;;;4.93;3.25;;;;;;;;;;5028366;28;20480;-67
2021/08/01 13:50:19;;;;;;;5.95;3.38;;;;;;;;;;5026261;28;20040;-67
2021/08/01 13:52:48;;;;;;;4.55;2.60;;;;;;;;;;5009652;28;20014;-67
2021/08/01 13:55:15;;;;;;;4.57;3.38;;;;;;;;;;5015740;28;20485;-67
2021/08/01 13:57:40;;;;;;;4.53;3.10;;;;;;;;;;5022487;28;20032;-68
2021/08/01 14:00:06;;;;;;;5.20;3.35;;;;;;;;;;5009199;28;20378;-66
2021/08/01 14:02:31;;;;;;;4.25;3.20;;;;;;;;;;5022276;28;20385;-67
2021/08/01 14:04:57;;;;;;;4.13;2.65;;;;;;;;;;5026758;28;20025;-69
2021/08/01 14:07:22;;;;;;;4.72;2.90;;;;;;;;;;5020538;28;20041;-67
2021/08/01 14:09:48;;;;;;;6.40;2.90;;;;;;;;;;5015276;28;20491;-67
2021/08/01 14:12:13;;;;;;;5.05;3.30;;;;;;;;;;5028048;28;20480;-68
2021/08/01 14:14:38;;;;;;;5.68;3.25;;;;;;;;;;5028453;28;20095;-68
2021/08/01 14:17:04;;;;;;;5.82;2.70;;;;;;;;;;5017038;28;20101;-68
2021/08/01 14:19:30;;;;;;;5.10;2.78;;;;;;;;;;5009940;28;20407;-68
2021/08/01 14:21:55;;;;;;;4.03;2.75;;;;;;;;;;5009374;28;20512;-67
2021/08/01 14:24:21;;;;;;;4.13;2.90;;;;;;;;;;5011259;28;20026;-66
2021/08/01 14:26:48;;;;;;;4.82;3.20;;;;;;;;;;5006700;28;20109;-66
2021/08/01 14:29:14;;;;;;;4.18;2.88;;;;;;;;;;5015243;28;20723;-67
2021/08/01 14:31:47;;;;;;;4.93;2.53;;;;;;;;;;5015056;28;20026;-68
2021/08/01 14:34:13;;;;;;;5.18;3.00;;;;;;;;;;5018213;28;20049;-66
2021/08/01 14:36:39;;;;;;;5.40;2.60;;;;;;;;;;5016507;28;20021;-67
2021/08/01 14:39:11;;;;;;;5.93;3.08;;;;;;;;;;5015168;28;20033;-67
2021/08/01 14:41:37;;;;;;;5.53;3.28;;;;;;;;;;5001134;28;20022;-67